sensor_id;sensor_type;location;lat;lon;timestamp;pressure;altitude;pressure_sealevel;temperature;humidity
11525;BME280;5819;49.648;8.330;2022-10-31T00:01:38;100834.06;;;11.77;100.00
11525;BME280;5819;49.648;8.330;2022-10-31T00:04:06;100847.16;;;11.52;100.00
11525;BME280;5819;49.648;8.330;2022-10-31T00:06:34;100842.31;;;11.43;100.00
11525;BME280;5819;49.648;8.330;2022-10-31T00:09:04;100841.50;;;11.41;100.00
11525;BME280;5819;49.648;8.330;2022-10-31T00:11:32;100851.41;;;11.32;100.00
11525;BME280;5819;49.648;8.330;2022-10-31T00:14:01;100849.44;;;11.38;100.00
11525;BME280;5819;49.648;8.330;2022-10-31T00:16:29;100838.50;;;11.52;100.00
11525;BME280;5819;49.648;8.330;2022-10-31T00:18:58;100830.31;;;11.61;100.00
11525;BME280;5819;49.648;8.330;2022-10-31T00:21:27;100835.19;;;11.70;100.00
11525;BME280;5819;49.648;8.330;2022-10-31T00:23:56;100838.38;;;11.78;100.00
11525;BME280;5819;49.648;8.330;2022-10-31T00:26:26;100836.44;;;11.83;100.00
11525;BME280;5819;49.648;8.330;2022-10-31T00:28:54;100834.72;;;11.82;100.00
11525;BME280;5819;49.648;8.330;2022-10-31T00:31:22;100836.78;;;11.74;100.00
11525;BME280;5819;49.648;8.330;2022-10-31T00:33:50;100835.22;;;11.68;100.00
11525;BME280;5819;49.648;8.330;2022-10-31T00:36:19;100828.31;;;11.67;100.00
11525;BME280;5819;49.648;8.330;2022-10-31T00:38:47;100836.13;;;11.67;100.00
11525;BME280;5819;49.648;8.330;2022-10-31T00:41:17;100831.22;;;11.83;100.00
11525;BME280;5819;49.648;8.330;2022-10-31T00:43:47;100830.84;;;11.92;100.00
11525;BME280;5819;49.648;8.330;2022-10-31T00:46:14;100828.75;;;12.00;100.00
11525;BME280;5819;49.648;8.330;2022-10-31T00:48:42;100827.81;;;12.03;100.00
11525;BME280;5819;49.648;8.330;2022-10-31T00:51:10;100831.31;;;12.02;100.00
11525;BME280;5819;49.648;8.330;2022-10-31T00:53:40;100831.19;;;12.05;100.00
11525;BME280;5819;49.648;8.330;2022-10-31T00:56:08;100834.84;;;12.01;100.00
11525;BME280;5819;49.648;8.330;2022-10-31T00:58:35;100842.59;;;11.81;100.00
11525;BME280;5819;49.648;8.330;2022-10-31T01:01:05;100847.22;;;11.74;100.00
11525;BME280;5819;49.648;8.330;2022-10-31T01:03:34;100849.41;;;11.61;100.00
11525;BME280;5819;49.648;8.330;2022-10-31T01:06:10;100851.91;;;11.64;100.00
11525;BME280;5819;49.648;8.330;2022-10-31T01:08:39;100847.78;;;11.59;100.00
11525;BME280;5819;49.648;8.330;2022-10-31T01:11:12;100848.25;;;11.47;100.00
11525;BME280;5819;49.648;8.330;2022-10-31T01:13:40;100839.41;;;11.51;100.00
11525;BME280;5819;49.648;8.330;2022-10-31T01:16:11;100842.06;;;11.49;100.00
11525;BME280;5819;49.648;8.330;2022-10-31T01:18:39;100839.34;;;11.52;100.00
11525;BME280;5819;49.648;8.330;2022-10-31T01:21:08;100846.31;;;11.52;100.00
11525;BME280;5819;49.648;8.330;2022-10-31T01:23:37;100847.63;;;11.40;100.00
11525;BME280;5819;49.648;8.330;2022-10-31T01:26:07;100845.56;;;11.48;100.00
11525;BME280;5819;49.648;8.330;2022-10-31T01:28:43;100848.88;;;11.53;100.00
11525;BME280;5819;49.648;8.330;2022-10-31T01:31:13;100847.28;;;11.49;100.00
11525;BME280;5819;49.648;8.330;2022-10-31T01:33:41;100842.06;;;11.49;100.00
11525;BME280;5819;49.648;8.330;2022-10-31T01:36:15;100842.94;;;11.50;100.00
11525;BME280;5819;49.648;8.330;2022-10-31T01:38:44;100843.59;;;11.55;100.00
11525;BME280;5819;49.648;8.330;2022-10-31T01:41:14;100843.94;;;11.46;100.00
11525;BME280;5819;49.648;8.330;2022-10-31T01:43:47;100840.38;;;11.48;100.00
11525;BME280;5819;49.648;8.330;2022-10-31T01:46:20;100845.28;;;11.56;100.00
11525;BME280;5819;49.648;8.330;2022-10-31T01:48:50;100841.78;;;11.57;100.00
11525;BME280;5819;49.648;8.330;2022-10-31T01:51:20;100846.56;;;11.46;100.00
11525;BME280;5819;49.648;8.330;2022-10-31T01:53:50;100841.63;;;11.38;100.00
11525;BME280;5819;49.648;8.330;2022-10-31T01:56:20;100844.81;;;11.46;100.00
11525;BME280;5819;49.648;8.330;2022-10-31T01:58:50;100847.53;;;11.43;100.00
11525;BME280;5819;49.648;8.330;2022-10-31T02:01:20;100842.50;;;11.39;100.00
11525;BME280;5819;49.648;8.330;2022-10-31T02:03:48;100841.50;;;11.41;100.00
11525;BME280;5819;49.648;8.330;2022-10-31T02:06:26;100834.13;;;11.52;100.00
11525;BME280;5819;49.648;8.330;2022-10-31T02:08:57;100830.41;;;11.59;100.00
11525;BME280;5819;49.648;8.330;2022-10-31T02:11:27;100835.53;;;11.61;100.00
11525;BME280;5819;49.648;8.330;2022-10-31T02:13:56;100826.88;;;11.60;100.00
11525;BME280;5819;49.648;8.330;2022-10-31T02:16:26;100832.75;;;11.65;100.00
11525;BME280;5819;49.648;8.330;2022-10-31T02:18:54;100836.09;;;11.69;100.00
11525;BME280;5819;49.648;8.330;2022-10-31T02:21:27;100825.84;;;11.64;100.00
11525;BME280;5819;49.648;8.330;2022-10-31T02:24:16;100823.31;;;11.63;100.00
11525;BME280;5819;49.648;8.330;2022-10-31T02:26:54;100824.88;;;11.67;100.00
11525;BME280;5819;49.648;8.330;2022-10-31T02:29:51;100814.47;;;11.67;100.00
11525;BME280;5819;49.648;8.330;2022-10-31T02:32:27;100822.19;;;11.68;100.00
11525;BME280;5819;49.648;8.330;2022-10-31T02:34:58;100823.06;;;11.69;100.00
11525;BME280;5819;49.648;8.330;2022-10-31T02:37:36;100821.25;;;11.71;100.00
11525;BME280;5819;49.648;8.330;2022-10-31T02:40:13;100822.09;;;11.71;100.00
11525;BME280;5819;49.648;8.330;2022-10-31T02:43:12;100821.25;;;11.71;100.00
11525;BME280;5819;49.648;8.330;2022-10-31T02:45:50;100824.75;;;11.70;100.00
11525;BME280;5819;49.648;8.330;2022-10-31T02:48:28;100823.06;;;11.69;100.00
11525;BME280;5819;49.648;8.330;2022-10-31T02:50:59;100824.72;;;11.71;100.00
11525;BME280;5819;49.648;8.330;2022-10-31T02:53:31;100819.56;;;11.70;100.00
11525;BME280;5819;49.648;8.330;2022-10-31T02:56:02;100818.66;;;11.71;100.00
11525;BME280;5819;49.648;8.330;2022-10-31T02:58:34;100822.97;;;11.72;100.00
11525;BME280;5819;49.648;8.330;2022-10-31T03:01:14;100828.25;;;11.69;100.00
11525;BME280;5819;49.648;8.330;2022-10-31T03:04:05;100822.47;;;11.62;100.00
11525;BME280;5819;49.648;8.330;2022-10-31T03:06:41;100819.97;;;11.59;100.00
11525;BME280;5819;49.648;8.330;2022-10-31T03:09:15;100818.19;;;11.60;100.00
11525;BME280;5819;49.648;8.330;2022-10-31T03:11:53;100812.38;;;11.53;100.00
11525;BME280;5819;49.648;8.330;2022-10-31T03:14:29;100809.06;;;11.50;100.00
11525;BME280;5819;49.648;8.330;2022-10-31T03:17:00;100815.03;;;11.52;100.00
11525;BME280;5819;49.648;8.330;2022-10-31T03:19:34;100808.81;;;11.56;100.00
11525;BME280;5819;49.648;8.330;2022-10-31T03:22:12;100808.56;;;11.62;100.00
11525;BME280;5819;49.648;8.330;2022-10-31T03:24:43;100802.38;;;11.64;100.00
11525;BME280;5819;49.648;8.330;2022-10-31T03:27:16;100801.34;;;11.68;100.00
11525;BME280;5819;49.648;8.330;2022-10-31T03:29:47;100791.69;;;11.72;100.00
11525;BME280;5819;49.648;8.330;2022-10-31T03:32:19;100793.38;;;11.73;100.00
11525;BME280;5819;49.648;8.330;2022-10-31T03:34:53;100782.91;;;11.75;100.00
11525;BME280;5819;49.648;8.330;2022-10-31T03:37:26;100781.97;;;11.76;100.00
11525;BME280;5819;49.648;8.330;2022-10-31T03:39:56;100786.25;;;11.78;100.00
11525;BME280;5819;49.648;8.330;2022-10-31T03:42:28;100785.34;;;11.79;100.00
11525;BME280;5819;49.648;8.330;2022-10-31T03:45:00;100788.72;;;11.81;100.00
11525;BME280;5819;49.648;8.330;2022-10-31T03:47:30;100782.41;;;11.87;100.00
11525;BME280;5819;49.648;8.330;2022-10-31T03:50:01;100784.19;;;11.86;100.00
11525;BME280;5819;49.648;8.330;2022-10-31T03:52:33;100780.66;;;11.87;100.00
11525;BME280;5819;49.648;8.330;2022-10-31T03:55:07;100773.66;;;11.88;100.00
11525;BME280;5819;49.648;8.330;2022-10-31T03:57:39;100782.28;;;11.90;100.00
11525;BME280;5819;49.648;8.330;2022-10-31T04:00:11;100785.63;;;11.93;100.00
11525;BME280;5819;49.648;8.330;2022-10-31T04:02:47;100786.34;;;11.97;100.00
11525;BME280;5819;49.648;8.330;2022-10-31T04:05:19;100776.94;;;11.93;100.00
11525;BME280;5819;49.648;8.330;2022-10-31T04:07:52;100779.41;;;11.96;100.00
11525;BME280;5819;49.648;8.330;2022-10-31T04:10:22;100774.28;;;11.94;100.00
11525;BME280;5819;49.648;8.330;2022-10-31T04:13:03;100781.38;;;11.91;100.00
11525;BME280;5819;49.648;8.330;2022-10-31T04:15:44;100781.47;;;11.88;100.00
11525;BME280;5819;49.648;8.330;2022-10-31T04:18:15;100786.59;;;11.91;100.00
11525;BME280;5819;49.648;8.330;2022-10-31T04:20:46;100780.78;;;11.84;100.00
11525;BME280;5819;49.648;8.330;2022-10-31T04:23:18;100780.13;;;11.79;100.00
11525;BME280;5819;49.648;8.330;2022-10-31T04:25:48;100784.53;;;11.77;100.00
11525;BME280;5819;49.648;8.330;2022-10-31T04:28:17;100787.19;;;11.76;100.00
11525;BME280;5819;49.648;8.330;2022-10-31T04:30:50;100791.59;;;11.75;100.00
11525;BME280;5819;49.648;8.330;2022-10-31T04:33:18;100787.28;;;11.74;100.00
11525;BME280;5819;49.648;8.330;2022-10-31T04:35:48;100792.03;;;11.63;100.00
11525;BME280;5819;49.648;8.330;2022-10-31T04:38:17;100784.16;;;11.64;100.00
11525;BME280;5819;49.648;8.330;2022-10-31T04:40:45;100783.97;;;11.69;100.00
11525;BME280;5819;49.648;8.330;2022-10-31T04:43:32;100780.47;;;11.70;100.00
11525;BME280;5819;49.648;8.330;2022-10-31T04:46:01;100781.41;;;11.67;100.00
11525;BME280;5819;49.648;8.330;2022-10-31T04:48:29;100787.56;;;11.66;100.00
11525;BME280;5819;49.648;8.330;2022-10-31T04:51:03;100788.41;;;11.67;100.00
11525;BME280;5819;49.648;8.330;2022-10-31T04:53:31;100785.34;;;11.56;100.00
11525;BME280;5819;49.648;8.330;2022-10-31T04:56:19;100788.09;;;11.53;100.00
11525;BME280;5819;49.648;8.330;2022-10-31T04:58:51;100790.13;;;11.45;100.00
11525;BME280;5819;49.648;8.330;2022-10-31T05:01:21;100788.38;;;11.45;100.00
11525;BME280;5819;49.648;8.330;2022-10-31T05:03:49;100785.78;;;11.45;100.00
11525;BME280;5819;49.648;8.330;2022-10-31T05:06:18;100775.41;;;11.44;100.00
11525;BME280;5819;49.648;8.330;2022-10-31T05:08:46;100780.56;;;11.45;100.00
11525;BME280;5819;49.648;8.330;2022-10-31T05:11:14;100774.38;;;11.48;100.00
11525;BME280;5819;49.648;8.330;2022-10-31T05:13:43;100782.50;;;11.40;100.00
11525;BME280;5819;49.648;8.330;2022-10-31T05:16:31;100786.59;;;11.24;100.00
11525;BME280;5819;49.648;8.330;2022-10-31T05:19:17;100780.75;;;11.19;100.00
11525;BME280;5819;49.648;8.330;2022-10-31T05:22:09;100773.19;;;11.11;100.00
11525;BME280;5819;49.648;8.330;2022-10-31T05:24:37;100773.44;;;11.05;100.00
11525;BME280;5819;49.648;8.330;2022-10-31T05:27:05;100776.91;;;11.06;100.00
11525;BME280;5819;49.648;8.330;2022-10-31T05:29:33;100772.25;;;11.14;100.00
11525;BME280;5819;49.648;8.330;2022-10-31T05:32:02;100772.84;;;11.20;100.00
11525;BME280;5819;49.648;8.330;2022-10-31T05:34:53;100761.41;;;11.24;100.00
11525;BME280;5819;49.648;8.330;2022-10-31T05:37:51;100773.53;;;11.25;100.00
11525;BME280;5819;49.648;8.330;2022-10-31T05:40:20;100770.38;;;11.17;100.00
11525;BME280;5819;49.648;8.330;2022-10-31T05:42:51;100778.06;;;11.20;100.00
11525;BME280;5819;49.648;8.330;2022-10-31T05:45:21;100766.69;;;11.23;100.00
11525;BME280;5819;49.648;8.330;2022-10-31T05:47:56;100772.94;;;11.19;100.00
11525;BME280;5819;49.648;8.330;2022-10-31T05:50:48;100775.03;;;11.09;100.00
11525;BME280;5819;49.648;8.330;2022-10-31T05:53:18;100774.41;;;11.03;100.00
11525;BME280;5819;49.648;8.330;2022-10-31T05:55:46;100776.09;;;11.04;100.00
11525;BME280;5819;49.648;8.330;2022-10-31T05:58:18;100774.63;;;10.97;100.00
11525;BME280;5819;49.648;8.330;2022-10-31T06:00:53;100773.03;;;10.93;100.00
11525;BME280;5819;49.648;8.330;2022-10-31T06:03:22;100780.34;;;10.83;100.00
11525;BME280;5819;49.648;8.330;2022-10-31T06:05:56;100773.56;;;10.79;100.00
11525;BME280;5819;49.648;8.330;2022-10-31T06:08:31;100779.78;;;10.75;100.00
11525;BME280;5819;49.648;8.330;2022-10-31T06:11:03;100775.69;;;10.68;100.00
11525;BME280;5819;49.648;8.330;2022-10-31T06:13:51;100788.81;;;10.65;100.00
11525;BME280;5819;49.648;8.330;2022-10-31T06:16:28;100792.31;;;10.64;100.00
11525;BME280;5819;49.648;8.330;2022-10-31T06:19:03;100795.06;;;10.59;100.00
11525;BME280;5819;49.648;8.330;2022-10-31T06:21:34;100792.38;;;10.62;100.00
11525;BME280;5819;49.648;8.330;2022-10-31T06:24:04;100783.66;;;10.63;100.00
11525;BME280;5819;49.648;8.330;2022-10-31T06:26:55;100798.22;;;10.69;100.00
11525;BME280;5819;49.648;8.330;2022-10-31T06:29:22;100797.19;;;10.73;100.00
11525;BME280;5819;49.648;8.330;2022-10-31T06:32:13;100786.78;;;10.73;100.00
11525;BME280;5819;49.648;8.330;2022-10-31T06:34:43;100790.97;;;10.77;100.00
11525;BME280;5819;49.648;8.330;2022-10-31T06:37:15;100795.03;;;10.84;100.00
11525;BME280;5819;49.648;8.330;2022-10-31T06:39:47;100792.72;;;10.76;100.00
11525;BME280;5819;49.648;8.330;2022-10-31T06:42:16;100795.16;;;10.81;100.00
11525;BME280;5819;49.648;8.330;2022-10-31T06:44:44;100790.78;;;10.83;100.00
11525;BME280;5819;49.648;8.330;2022-10-31T06:47:29;100786.00;;;10.94;100.00
11525;BME280;5819;49.648;8.330;2022-10-31T06:50:07;100795.25;;;11.03;100.00
11525;BME280;5819;49.648;8.330;2022-10-31T06:52:36;100789.00;;;11.07;100.00
11525;BME280;5819;49.648;8.330;2022-10-31T06:55:06;100791.41;;;11.11;100.00
11525;BME280;5819;49.648;8.330;2022-10-31T06:57:34;100791.41;;;11.11;100.00
11525;BME280;5819;49.648;8.330;2022-10-31T07:00:02;100789.56;;;11.15;100.00
11525;BME280;5819;49.648;8.330;2022-10-31T07:02:41;100793.81;;;11.17;100.00
11525;BME280;5819;49.648;8.330;2022-10-31T07:05:10;100784.00;;;11.24;100.00
11525;BME280;5819;49.648;8.330;2022-10-31T07:07:55;100793.28;;;11.31;100.00
11525;BME280;5819;49.648;8.330;2022-10-31T07:10:28;100794.78;;;11.37;100.00
11525;BME280;5819;49.648;8.330;2022-10-31T07:13:04;100790.41;;;11.39;100.00
11525;BME280;5819;49.648;8.330;2022-10-31T07:15:37;100787.50;;;11.46;100.00
11525;BME280;5819;49.648;8.330;2022-10-31T07:18:06;100789.25;;;11.46;100.00
11525;BME280;5819;49.648;8.330;2022-10-31T07:20:34;100788.94;;;11.53;100.00
11525;BME280;5819;49.648;8.330;2022-10-31T07:23:02;100787.59;;;11.65;100.00
11525;BME280;5819;49.648;8.330;2022-10-31T07:25:33;100783.00;;;11.71;100.00
11525;BME280;5819;49.648;8.330;2022-10-31T07:28:06;100778.66;;;11.72;100.00
11525;BME280;5819;49.648;8.330;2022-10-31T07:30:34;100779.31;;;11.77;100.00
11525;BME280;5819;49.648;8.330;2022-10-31T07:33:03;100775.75;;;11.80;100.00
11525;BME280;5819;49.648;8.330;2022-10-31T07:35:51;100780.78;;;11.84;100.00
11525;BME280;5819;49.648;8.330;2022-10-31T07:38:22;100776.41;;;11.85;100.00
11525;BME280;5819;49.648;8.330;2022-10-31T07:40:52;100775.13;;;11.95;100.00
11525;BME280;5819;49.648;8.330;2022-10-31T07:43:21;100771.50;;;11.99;100.00
11525;BME280;5819;49.648;8.330;2022-10-31T07:46:07;100767.91;;;12.01;100.00
11525;BME280;5819;49.648;8.330;2022-10-31T07:49:13;100773.78;;;12.06;100.00
11525;BME280;5819;49.648;8.330;2022-10-31T07:52:00;100771.09;;;12.08;100.00
11525;BME280;5819;49.648;8.330;2022-10-31T07:54:53;100775.22;;;12.13;100.00
11525;BME280;5819;49.648;8.330;2022-10-31T07:57:24;100776.91;;;12.14;100.00
11525;BME280;5819;49.648;8.330;2022-10-31T07:59:59;100768.81;;;12.20;100.00
11525;BME280;5819;49.648;8.330;2022-10-31T08:02:28;100769.41;;;12.27;100.00
11525;BME280;5819;49.648;8.330;2022-10-31T08:05:28;100776.25;;;12.50;100.00
11525;BME280;5819;49.648;8.330;2022-10-31T08:08:17;100785.38;;;12.40;100.00
11525;BME280;5819;49.648;8.330;2022-10-31T08:10:46;100788.97;;;12.37;100.00
11525;BME280;5819;49.648;8.330;2022-10-31T08:13:15;100789.88;;;12.36;100.00
11525;BME280;5819;49.648;8.330;2022-10-31T08:15:46;100789.44;;;12.47;100.00
11525;BME280;5819;49.648;8.330;2022-10-31T08:18:20;100782.50;;;12.46;100.00
11525;BME280;5819;49.648;8.330;2022-10-31T08:20:50;100783.03;;;12.34;100.00
11525;BME280;5819;49.648;8.330;2022-10-31T08:23:18;100777.97;;;12.31;100.00
11525;BME280;5819;49.648;8.330;2022-10-31T08:25:46;100789.81;;;12.38;100.00
11525;BME280;5819;49.648;8.330;2022-10-31T08:28:16;100781.94;;;12.39;100.00
11525;BME280;5819;49.648;8.330;2022-10-31T08:30:46;100782.50;;;12.46;100.00
11525;BME280;5819;49.648;8.330;2022-10-31T08:33:37;100775.59;;;12.45;100.00
11525;BME280;5819;49.648;8.330;2022-10-31T08:36:23;100782.47;;;12.47;100.00
11525;BME280;5819;49.648;8.330;2022-10-31T08:38:51;100778.53;;;12.57;100.00
11525;BME280;5819;49.648;8.330;2022-10-31T08:41:27;100769.69;;;12.60;100.00
11525;BME280;5819;49.648;8.330;2022-10-31T08:43:57;100774.31;;;12.74;100.00
11525;BME280;5819;49.648;8.330;2022-10-31T08:46:25;100777.38;;;12.83;100.00
11525;BME280;5819;49.648;8.330;2022-10-31T08:48:53;100774.22;;;12.95;100.00
11525;BME280;5819;49.648;8.330;2022-10-31T08:51:22;100766.97;;;13.21;100.00
11525;BME280;5819;49.648;8.330;2022-10-31T08:53:53;100779.25;;;13.19;100.00
11525;BME280;5819;49.648;8.330;2022-10-31T08:56:40;100773.44;;;13.12;100.00
11525;BME280;5819;49.648;8.330;2022-10-31T08:59:27;100776.50;;;13.22;100.00
11525;BME280;5819;49.648;8.330;2022-10-31T09:02:30;100767.38;;;13.30;100.00
11525;BME280;5819;49.648;8.330;2022-10-31T09:04:59;100766.97;;;13.39;100.00
11525;BME280;5819;49.648;8.330;2022-10-31T09:07:28;100771.03;;;13.45;100.00
11525;BME280;5819;49.648;8.330;2022-10-31T09:09:57;100767.16;;;13.53;100.00
11525;BME280;5819;49.648;8.330;2022-10-31T09:12:26;100767.56;;;13.63;100.00
11525;BME280;5819;49.648;8.330;2022-10-31T09:15:21;100762.88;;;13.70;100.00
11525;BME280;5819;49.648;8.330;2022-10-31T09:18:12;100766.28;;;13.72;100.00
11525;BME280;5819;49.648;8.330;2022-10-31T09:20:49;100762.50;;;13.77;100.00
11525;BME280;5819;49.648;8.330;2022-10-31T09:23:19;100757.72;;;13.85;100.00
11525;BME280;5819;49.648;8.330;2022-10-31T09:25:49;100757.91;;;13.99;100.00
11525;BME280;5819;49.648;8.330;2022-10-31T09:28:32;100762.53;;;13.94;100.00
11525;BME280;5819;49.648;8.330;2022-10-31T09:31:07;100760.53;;;13.99;100.00
11525;BME280;5819;49.648;8.330;2022-10-31T09:33:53;100756.50;;;14.10;100.00
11525;BME280;5819;49.648;8.330;2022-10-31T09:36:30;100749.28;;;14.15;100.00
11525;BME280;5819;49.648;8.330;2022-10-31T09:38:57;100759.75;;;14.32;100.00
11525;BME280;5819;49.648;8.330;2022-10-31T09:41:33;100754.66;;;14.29;100.00
11525;BME280;5819;49.648;8.330;2022-10-31T09:44:17;100750.09;;;14.32;100.00
11525;BME280;5819;49.648;8.330;2022-10-31T09:46:55;100746.56;;;14.33;100.00
11525;BME280;5819;49.648;8.330;2022-10-31T09:49:52;100751.59;;;14.38;100.00
11525;BME280;5819;49.648;8.330;2022-10-31T09:52:24;100741.97;;;14.38;100.00
11525;BME280;5819;49.648;8.330;2022-10-31T09:54:58;100739.31;;;14.40;100.00
11525;BME280;5819;49.648;8.330;2022-10-31T09:57:31;100742.50;;;14.45;100.00
11525;BME280;5819;49.648;8.330;2022-10-31T10:00:01;100737.63;;;14.55;100.00
11525;BME280;5819;49.648;8.330;2022-10-31T10:02:44;100736.47;;;14.60;100.00
11525;BME280;5819;49.648;8.330;2022-10-31T10:05:18;100728.69;;;14.59;100.00
11525;BME280;5819;49.648;8.330;2022-10-31T10:08:00;100729.44;;;14.61;100.00
11525;BME280;5819;49.648;8.330;2022-10-31T10:10:51;100730.66;;;14.71;100.00
11525;BME280;5819;49.648;8.330;2022-10-31T10:16:38;100734.31;;;14.84;100.00
11525;BME280;5819;49.648;8.330;2022-10-31T10:19:22;100732.16;;;14.92;100.00
11525;BME280;5819;49.648;8.330;2022-10-31T10:21:59;100734.34;;;14.99;100.00
11525;BME280;5819;49.648;8.330;2022-10-31T10:24:39;100724.19;;;15.09;100.00
11525;BME280;5819;49.648;8.330;2022-10-31T10:27:18;100721.41;;;15.12;100.00
11525;BME280;5819;49.648;8.330;2022-10-31T10:29:57;100726.47;;;15.15;100.00
11525;BME280;5819;49.648;8.330;2022-10-31T10:32:38;100727.09;;;15.20;100.00
11525;BME280;5819;49.648;8.330;2022-10-31T10:35:16;100731.91;;;15.28;100.00
11525;BME280;5819;49.648;8.330;2022-10-31T10:37:49;100728.31;;;15.29;100.00
11525;BME280;5819;49.648;8.330;2022-10-31T10:40:20;100720.81;;;15.38;100.00
11525;BME280;5819;49.648;8.330;2022-10-31T10:42:56;100716.59;;;15.36;100.00
11525;BME280;5819;49.648;8.330;2022-10-31T10:48:55;100699.50;;;15.44;100.00
11525;BME280;5819;49.648;8.330;2022-10-31T10:51:40;100700.31;;;15.61;100.00
11525;BME280;5819;49.648;8.330;2022-10-31T10:54:41;100694.41;;;15.57;100.00
11525;BME280;5819;49.648;8.330;2022-10-31T10:57:38;100687.13;;;15.62;100.00
11525;BME280;5819;49.648;8.330;2022-10-31T11:00:19;100685.09;;;15.67;100.00
11525;BME280;5819;49.648;8.330;2022-10-31T11:02:48;100674.63;;;15.81;100.00
11525;BME280;5819;49.648;8.330;2022-10-31T11:05:24;100677.34;;;15.80;100.00
11525;BME280;5819;49.648;8.330;2022-10-31T11:07:54;100675.72;;;15.77;100.00
11525;BME280;5819;49.648;8.330;2022-10-31T11:10:22;100677.25;;;15.81;100.00
11525;BME280;5819;49.648;8.330;2022-10-31T11:13:01;100670.59;;;15.90;100.00
11525;BME280;5819;49.648;8.330;2022-10-31T11:15:33;100674.34;;;15.86;100.00
11525;BME280;5819;49.648;8.330;2022-10-31T11:18:03;100668.25;;;15.85;100.00
11525;BME280;5819;49.648;8.330;2022-10-31T11:20:33;100659.94;;;15.93;100.00
11525;BME280;5819;49.648;8.330;2022-10-31T11:23:14;100658.38;;;16.05;100.00
11525;BME280;5819;49.648;8.330;2022-10-31T11:25:52;100662.66;;;16.06;100.00
11525;BME280;5819;49.648;8.330;2022-10-31T11:28:22;100649.75;;;16.03;100.00
11525;BME280;5819;49.648;8.330;2022-10-31T11:30:52;100654.72;;;16.07;100.00
11525;BME280;5819;49.648;8.330;2022-10-31T11:33:26;100650.88;;;16.13;100.00
11525;BME280;5819;49.648;8.330;2022-10-31T11:35:55;100649.56;;;16.20;100.00
11525;BME280;5819;49.648;8.330;2022-10-31T11:38:32;100646.09;;;16.33;100.00
11525;BME280;5819;49.648;8.330;2022-10-31T11:41:09;100643.94;;;16.40;100.00
11525;BME280;5819;49.648;8.330;2022-10-31T11:43:46;100645.72;;;16.39;100.00
11525;BME280;5819;49.648;8.330;2022-10-31T11:46:21;100646.47;;;16.42;100.00
11525;BME280;5819;49.648;8.330;2022-10-31T11:48:52;100640.28;;;16.43;100.00
11525;BME280;5819;49.648;8.330;2022-10-31T11:51:22;100634.47;;;16.37;100.00
11525;BME280;5819;49.648;8.330;2022-10-31T11:53:54;100637.16;;;16.50;100.00
11525;BME280;5819;49.648;8.330;2022-10-31T11:56:37;100616.66;;;16.57;100.00
11525;BME280;5819;49.648;8.330;2022-10-31T11:59:15;100616.34;;;16.47;100.00
11525;BME280;5819;49.648;8.330;2022-10-31T12:01:47;100604.53;;;16.54;100.00
11525;BME280;5819;49.648;8.330;2022-10-31T12:04:16;100597.69;;;16.52;100.00
11525;BME280;5819;49.648;8.330;2022-10-31T12:06:45;100596.84;;;16.51;100.00
11525;BME280;5819;49.648;8.330;2022-10-31T12:09:19;100602.38;;;16.47;100.00
11525;BME280;5819;49.648;8.330;2022-10-31T12:11:59;100592.91;;;16.44;100.00
11525;BME280;5819;49.648;8.330;2022-10-31T12:14:37;100590.09;;;16.33;100.00
11525;BME280;5819;49.648;8.330;2022-10-31T12:17:14;100585.06;;;16.30;100.00
11525;BME280;5819;49.648;8.330;2022-10-31T12:19:48;100587.59;;;16.31;100.00
11525;BME280;5819;49.648;8.330;2022-10-31T12:22:33;100585.34;;;16.39;100.00
11525;BME280;5819;49.648;8.330;2022-10-31T12:25:23;100576.16;;;16.32;100.00
11525;BME280;5819;49.648;8.330;2022-10-31T12:28:18;100572.28;;;16.38;100.00
11525;BME280;5819;49.648;8.330;2022-10-31T12:30:59;100558.50;;;16.34;100.00
11525;BME280;5819;49.648;8.330;2022-10-31T12:33:43;100558.78;;;16.30;100.00
11525;BME280;5819;49.648;8.330;2022-10-31T12:36:24;100559.44;;;16.33;100.00
11525;BME280;5819;49.648;8.330;2022-10-31T12:39:22;100561.97;;;16.35;100.00
11525;BME280;5819;49.648;8.330;2022-10-31T12:42:37;100563.97;;;16.31;100.00
11525;BME280;5819;49.648;8.330;2022-10-31T12:45:35;100557.22;;;16.27;100.00
11525;BME280;5819;49.648;8.330;2022-10-31T12:48:18;100555.53;;;16.26;100.00
11525;BME280;5819;49.648;8.330;2022-10-31T12:50:55;100561.81;;;16.24;100.00
11525;BME280;5819;49.648;8.330;2022-10-31T12:53:44;100560.69;;;16.28;100.00
11525;BME280;5819;49.648;8.330;2022-10-31T12:56:29;100550.84;;;16.31;100.00
11525;BME280;5819;49.648;8.330;2022-10-31T12:59:28;100551.56;;;16.33;100.00
11525;BME280;5819;49.648;8.330;2022-10-31T13:02:00;100540.41;;;16.30;100.00
11525;BME280;5819;49.648;8.330;2022-10-31T13:04:40;100530.47;;;16.35;100.00
11525;BME280;5819;49.648;8.330;2022-10-31T13:07:13;100513.81;;;16.22;100.00
11525;BME280;5819;49.648;8.330;2022-10-31T13:09:45;100499.09;;;16.19;100.00
11525;BME280;5819;49.648;8.330;2022-10-31T13:12:16;100495.84;;;16.16;100.00
11525;BME280;5819;49.648;8.330;2022-10-31T13:14:49;100493.41;;;16.13;100.00
11525;BME280;5819;49.648;8.330;2022-10-31T13:17:27;100487.66;;;16.20;100.00
11525;BME280;5819;49.648;8.330;2022-10-31T13:20:11;100488.16;;;16.13;100.00
11525;BME280;5819;49.648;8.330;2022-10-31T13:22:42;100483.94;;;16.10;100.00
11525;BME280;5819;49.648;8.330;2022-10-31T13:25:15;100476.81;;;16.12;100.00
11525;BME280;5819;49.648;8.330;2022-10-31T13:27:48;100471.72;;;16.09;100.00
11525;BME280;5819;49.648;8.330;2022-10-31T13:30:21;100453.69;;;16.05;100.00
11525;BME280;5819;49.648;8.330;2022-10-31T13:32:52;100452.00;;;16.04;100.00
11525;BME280;5819;49.648;8.330;2022-10-31T13:35:26;100446.53;;;16.07;100.00
11525;BME280;5819;49.648;8.330;2022-10-31T13:38:05;100450.75;;;16.09;100.00